Du har inga inställningar för hoppväder.nu

Hoppväder.nu

Senast uppdaterat 03:32

UTC-tid

2021-10-25 kl. 01:32


Sol och måne

Solen går upp 8:03 och går ner 18:09 (beräknade cirkatider)
Nästa fullmåne blir om 25 dagar (2021-11-19)

METAR

ESKN (Skavsta)
(12 minuter sedan)
ESKN 250120Z 21010KT CAVOK 06/04 Q1018=



ESSB (Bromma)
(12 minuter sedan)
ESSB 250120Z AUTO 22008KT 9999 OVC062/// 09/04 Q1017=



ESOE (Örebro)
(12 minuter sedan)
ESOE 250120Z AUTO 20006KT 9999 NCD 06/03 Q1016=



ESSL (Linköping)
(12 minuter sedan)
ESSL 250120Z AUTO 19005KT 9999 NCD 05/03 Q1018=



ESSP (Norrköping)
(12 minuter sedan)
ESSP 250120Z AUTO 20006KT 9999 NCD 06/03 Q1018=



TAF

ESKN (Skavsta)
(1562 minuter sedan)
ESKN 242330Z 2500/2524 22010KT CAVOK PROB40 2509/2512 BKN012 PROB40 2521/2524 RA=



ESSB (Bromma)
ESSB



ESOE (Örebro)
(1562 minuter sedan)
ESOE 242330Z 2500/2508 20012KT 9999 SCT045=



ESSL (Linköping)
ESSL



ESSP (Norrköping)
ESSP





Kodnycklar till TAF och METAR






LHP

(Nyköping är område se32b i Delområde 4)

Prognos är inte uppdaterad






Preliminär prognos